createdAt,value
2018-02-10T00:01:12.124Z,62.63
2018-02-10T00:03:39.547Z,59.83
2018-02-10T00:06:06.964Z,59.87
2018-02-10T00:08:35.164Z,58.07
2018-02-10T00:11:02.632Z,61.50
2018-02-10T00:13:30.080Z,63.60
2018-02-10T00:15:57.512Z,64.50
2018-02-10T00:18:24.934Z,60.97
2018-02-10T00:20:52.379Z,60.73
2018-02-10T00:23:19.815Z,59.07
2018-02-10T00:25:47.275Z,64.47
2018-02-10T00:28:14.715Z,62.27
2018-02-10T00:30:42.140Z,66.53
2018-02-10T00:33:09.576Z,59.03
2018-02-10T00:35:37.014Z,67.33
2018-02-10T00:38:04.432Z,65.40
2018-02-10T00:40:31.851Z,71.03
2018-02-10T00:43:00.075Z,69.33
2018-02-10T00:45:27.533Z,61.53
2018-02-10T00:47:54.936Z,65.57
2018-02-10T00:50:22.370Z,63.00
2018-02-10T00:52:49.795Z,64.17
2018-02-10T00:55:17.992Z,65.77
2018-02-10T00:57:45.428Z,66.60
2018-02-10T01:00:12.856Z,69.17
2018-02-10T01:02:40.292Z,58.53
2018-02-10T01:05:07.720Z,65.70
2018-02-10T01:07:35.904Z,67.23
2018-02-10T01:10:03.337Z,62.23
2018-02-10T01:12:30.800Z,63.30
2018-02-10T01:14:58.247Z,61.33
2018-02-10T01:17:25.667Z,66.60
2018-02-10T01:19:53.099Z,64.50
2018-02-10T01:22:20.543Z,63.87
2018-02-10T01:24:47.972Z,65.40
2018-02-10T01:27:15.406Z,66.40
2018-02-10T01:29:43.608Z,63.23
2018-02-10T01:32:11.043Z,65.53
2018-02-10T01:34:38.494Z,67.27
2018-02-10T01:37:05.915Z,69.93
2018-02-10T01:39:33.352Z,67.43
2018-02-10T01:42:00.791Z,61.00
2018-02-10T01:44:28.218Z,62.43
2018-02-10T01:46:55.656Z,65.93
2018-02-10T01:49:23.855Z,70.90
2018-02-10T01:51:51.289Z,69.67
2018-02-10T01:54:18.735Z,60.30
2018-02-10T01:56:46.155Z,59.17
2018-02-10T01:59:13.587Z,68.27
2018-02-10T02:01:41.007Z,67.83
2018-02-10T02:04:08.439Z,62.70
2018-02-10T02:06:35.867Z,61.23
2018-02-10T02:09:03.305Z,64.40
2018-02-10T02:11:30.733Z,61.80
2018-02-10T02:13:58.164Z,61.37
2018-02-10T02:16:25.616Z,64.10
2018-02-10T02:18:53.044Z,71.83
2018-02-10T02:21:20.496Z,67.70
2018-02-10T02:23:47.936Z,64.10
2018-02-10T02:26:15.368Z,63.63
2018-02-10T02:28:42.923Z,65.67
2018-02-10T02:31:10.327Z,65.77
2018-02-10T02:33:37.756Z,72.97
2018-02-10T02:36:05.947Z,69.57
2018-02-10T02:38:33.375Z,75.43
2018-02-10T02:41:00.795Z,74.20
2018-02-10T02:43:29.005Z,68.17
2018-02-10T02:45:56.428Z,72.90
2018-02-10T02:48:23.856Z,67.07
2018-02-10T02:50:51.291Z,67.57
2018-02-10T02:53:19.481Z,70.00
2018-02-10T02:55:46.920Z,68.17
2018-02-10T02:58:14.340Z,64.90
2018-02-10T03:00:41.771Z,64.57
2018-02-10T03:03:09.205Z,62.30
2018-02-10T03:05:37.408Z,66.33
2018-02-10T03:08:04.823Z,64.73
2018-02-10T03:10:32.267Z,64.97
2018-02-10T03:12:59.688Z,71.40
2018-02-10T03:15:27.900Z,68.50
2018-02-10T03:17:55.354Z,66.27
2018-02-10T03:20:22.775Z,65.97
2018-02-10T03:22:50.196Z,69.37
2018-02-10T03:25:17.618Z,63.83
2018-02-10T03:27:45.820Z,65.70
2018-02-10T03:30:13.249Z,67.53
2018-02-10T03:32:40.712Z,64.90
2018-02-10T03:35:08.139Z,60.80
2018-02-10T03:37:35.594Z,69.03
2018-02-10T03:40:03.035Z,64.03
2018-02-10T03:42:30.448Z,64.03
2018-02-10T03:44:57.885Z,71.37
2018-02-10T03:47:25.299Z,70.13
2018-02-10T03:49:53.496Z,62.23
2018-02-10T03:52:20.928Z,65.90
2018-02-10T03:54:48.355Z,57.37
2018-02-10T03:57:16.533Z,72.83
2018-02-10T03:59:43.963Z,60.90
2018-02-10T04:02:11.395Z,65.80
2018-02-10T04:04:39.587Z,64.03
2018-02-10T04:07:07.006Z,69.60
2018-02-10T04:09:34.497Z,64.03
2018-02-10T04:12:01.923Z,64.43
2018-02-10T04:14:29.347Z,58.23
2018-02-10T04:16:56.772Z,59.93
2018-02-10T04:19:24.203Z,66.80
2018-02-10T04:21:52.396Z,53.10
2018-02-10T04:24:19.825Z,62.90
2018-02-10T04:26:47.247Z,59.20
2018-02-10T04:29:15.460Z,63.80
2018-02-10T04:34:17.594Z,60.93
2018-02-10T04:36:45.020Z,60.53
2018-02-10T04:39:12.439Z,56.77
2018-02-10T04:41:40.633Z,64.60
2018-02-10T04:44:08.055Z,61.60
2018-02-10T04:46:35.491Z,61.97
2018-02-10T04:49:02.924Z,65.53
2018-02-10T04:51:31.107Z,59.53
2018-02-10T04:53:58.531Z,57.53
2018-02-10T04:56:25.955Z,55.57
2018-02-10T04:58:54.150Z,59.90
2018-02-10T05:01:21.571Z,65.33
2018-02-10T05:03:49.004Z,62.73
2018-02-10T05:06:17.191Z,64.07
2018-02-10T05:08:44.616Z,56.87
2018-02-10T05:11:12.043Z,64.70
2018-02-10T05:13:39.484Z,62.97
2018-02-10T05:16:07.701Z,64.37
2018-02-10T05:18:35.143Z,58.97
2018-02-10T05:21:02.564Z,59.87
2018-02-10T05:23:29.994Z,62.50
2018-02-10T05:25:57.426Z,58.93
2018-02-10T05:28:24.851Z,53.43
2018-02-10T05:30:53.043Z,59.00
2018-02-10T05:33:20.467Z,62.20
2018-02-10T05:35:47.897Z,62.40
2018-02-10T05:38:16.089Z,58.77
2018-02-10T05:40:43.516Z,55.33
2018-02-10T05:43:10.940Z,57.13
2018-02-10T05:45:39.144Z,56.03
2018-02-10T05:48:06.574Z,61.20
2018-02-10T05:50:34.004Z,63.80
2018-02-10T05:53:01.440Z,61.00
2018-02-10T05:55:28.855Z,55.13
2018-02-10T05:57:57.060Z,59.03
2018-02-10T06:00:24.487Z,55.33
2018-02-10T06:02:51.907Z,57.97
2018-02-10T06:05:20.099Z,57.70
2018-02-10T06:07:47.525Z,57.87
2018-02-10T06:10:14.948Z,58.27
2018-02-10T06:12:43.155Z,54.30
2018-02-10T06:15:10.580Z,58.10
2018-02-10T06:17:38.012Z,53.93
2018-02-10T06:20:05.447Z,55.83
2018-02-10T06:22:32.892Z,55.93
2018-02-10T06:25:00.323Z,62.30
2018-02-10T06:27:28.520Z,51.90
2018-02-10T06:29:55.966Z,58.17
2018-02-10T06:32:23.378Z,59.53
2018-02-10T06:34:50.815Z,50.90
2018-02-10T06:37:18.224Z,52.77
2018-02-10T06:39:46.419Z,53.00
2018-02-10T06:42:13.848Z,51.57
2018-02-10T06:44:41.274Z,51.43
2018-02-10T06:47:09.456Z,53.30
2018-02-10T06:49:36.886Z,57.60
2018-02-10T06:52:05.068Z,53.30
2018-02-10T06:54:32.512Z,56.00
2018-02-10T06:56:59.943Z,58.00
2018-02-10T06:59:27.383Z,59.43
2018-02-10T07:01:54.800Z,60.83
2018-02-10T07:04:22.997Z,59.83
2018-02-10T07:06:50.463Z,59.60
2018-02-10T07:09:17.891Z,49.97
2018-02-10T07:11:45.315Z,56.77
2018-02-10T07:14:12.741Z,53.93
2018-02-10T07:16:40.172Z,58.63
2018-02-10T07:19:08.413Z,58.43
2018-02-10T07:21:35.779Z,58.33
2018-02-10T07:24:03.222Z,55.80
2018-02-10T07:26:30.644Z,59.20
2018-02-10T07:28:58.835Z,58.33
2018-02-10T07:31:26.276Z,59.27
2018-02-10T07:33:53.719Z,59.90
2018-02-10T07:36:21.127Z,65.17
2018-02-10T07:38:49.327Z,63.73
2018-02-10T07:41:16.784Z,64.50
2018-02-10T07:43:44.212Z,61.93
2018-02-10T07:46:11.674Z,66.60
2018-02-10T07:48:39.076Z,61.40
2018-02-10T07:51:06.503Z,64.10
2018-02-10T07:53:34.708Z,68.03
2018-02-10T07:56:02.873Z,61.57
2018-02-10T07:58:30.292Z,57.50
2018-02-10T08:00:57.716Z,63.33
2018-02-10T08:03:25.143Z,66.50
2018-02-10T08:05:53.344Z,61.30
2018-02-10T08:08:20.780Z,67.60
2018-02-10T08:10:48.213Z,60.63
2018-02-10T08:13:15.655Z,57.13
2018-02-10T08:15:43.072Z,66.77
2018-02-10T08:18:11.259Z,57.77
2018-02-10T08:20:38.700Z,57.97
2018-02-10T08:23:06.125Z,58.77
2018-02-10T08:25:33.556Z,57.97
2018-02-10T08:28:01.760Z,60.07
2018-02-10T08:30:29.195Z,55.70
2018-02-10T08:32:56.632Z,56.13
2018-02-10T08:35:24.098Z,56.87
2018-02-10T08:37:51.504Z,56.90
2018-02-10T08:40:18.931Z,55.57
2018-02-10T08:42:46.351Z,57.30
2018-02-10T08:45:14.612Z,61.67
2018-02-10T08:47:42.801Z,51.30
2018-02-10T08:50:10.271Z,55.57
2018-02-10T08:52:37.700Z,48.30
2018-02-10T08:55:05.124Z,48.30
2018-02-10T08:57:32.560Z,45.50
2018-02-10T08:59:59.983Z,48.53
2018-02-10T09:02:28.196Z,50.43
2018-02-10T09:04:55.624Z,49.33
2018-02-10T09:07:23.055Z,51.20
2018-02-10T09:09:50.491Z,51.47
2018-02-10T09:12:17.907Z,51.90
2018-02-10T09:14:46.100Z,45.67
2018-02-10T09:17:13.529Z,47.00
2018-02-10T09:19:40.974Z,48.40
2018-02-10T09:22:08.391Z,52.50
2018-02-10T09:24:36.591Z,48.03
2018-02-10T09:27:04.031Z,53.53
2018-02-10T09:29:31.461Z,52.33
2018-02-10T09:31:58.895Z,47.40
2018-02-10T09:34:26.316Z,51.87
2018-02-10T09:36:54.503Z,53.30
2018-02-10T09:39:21.931Z,58.13
2018-02-10T09:41:49.355Z,57.40
2018-02-10T09:44:17.544Z,49.97
2018-02-10T09:46:44.974Z,53.83
2018-02-10T09:49:12.407Z,52.63
2018-02-10T09:51:39.859Z,51.23
2018-02-10T09:54:07.284Z,54.67
2018-02-10T09:56:35.479Z,51.77
2018-02-10T09:59:02.933Z,55.30
2018-02-10T10:01:30.384Z,56.40
2018-02-10T10:03:57.804Z,51.40
2018-02-10T10:06:25.233Z,57.80
2018-02-10T10:08:52.649Z,53.40
2018-02-10T10:11:20.840Z,58.07
2018-02-10T10:13:48.272Z,52.00
2018-02-10T10:16:15.700Z,56.40
2018-02-10T10:18:43.916Z,51.90
2018-02-10T10:21:11.373Z,52.37
2018-02-10T10:23:38.776Z,56.80
2018-02-10T10:26:06.237Z,50.30
2018-02-10T10:28:33.647Z,55.83
2018-02-10T10:31:01.077Z,48.00
2018-02-10T10:33:28.513Z,48.20
2018-02-10T10:35:56.012Z,52.97
2018-02-10T10:38:23.430Z,48.77
2018-02-10T10:40:50.852Z,50.53
2018-02-10T10:43:18.300Z,47.83
2018-02-10T10:45:45.727Z,48.50
2018-02-10T10:48:13.148Z,48.77
2018-02-10T10:50:41.350Z,49.23
2018-02-10T10:53:08.759Z,48.27
2018-02-10T10:55:36.183Z,44.13
2018-02-10T10:58:04.382Z,49.40
2018-02-10T11:00:31.817Z,46.97
2018-02-10T11:02:59.255Z,47.13
2018-02-10T11:05:28.335Z,51.23
2018-02-10T11:07:55.760Z,49.33
2018-02-10T11:10:23.195Z,44.10
2018-02-10T11:12:51.392Z,49.37
2018-02-10T11:15:18.812Z,41.70
2018-02-10T11:17:46.252Z,37.53
2018-02-10T11:20:13.675Z,33.10
2018-02-10T11:22:41.879Z,33.40
2018-02-10T11:25:09.320Z,31.03
2018-02-10T11:27:36.740Z,29.93
2018-02-10T11:30:04.168Z,28.03
2018-02-10T11:32:32.382Z,27.50
2018-02-10T11:34:59.799Z,24.63
2018-02-10T11:37:27.267Z,23.67
2018-02-10T11:39:55.731Z,25.87
2018-02-10T11:42:23.155Z,22.83
2018-02-10T11:44:50.588Z,22.60
2018-02-10T11:47:18.016Z,23.83
2018-02-10T11:49:45.447Z,22.07
2018-02-10T11:52:12.899Z,20.73
2018-02-10T11:54:40.344Z,24.07
2018-02-10T11:57:07.778Z,22.00
2018-02-10T11:59:35.222Z,22.23
2018-02-10T12:02:03.408Z,21.57
2018-02-10T12:04:30.898Z,25.33
2018-02-10T12:06:59.155Z,20.40
2018-02-10T12:09:26.605Z,21.53
2018-02-10T12:11:54.800Z,23.03
2018-02-10T12:14:22.223Z,22.17
2018-02-10T12:16:49.644Z,22.03
2018-02-10T12:19:17.839Z,22.57
2018-02-10T12:21:45.271Z,21.37
2018-02-10T12:24:12.697Z,23.03
2018-02-10T12:26:40.143Z,22.37
2018-02-10T12:29:07.640Z,21.13
2018-02-10T12:31:35.064Z,20.83
2018-02-10T12:34:02.487Z,25.80
2018-02-10T12:36:29.920Z,21.67
2018-02-10T12:38:57.347Z,24.83
2018-02-10T12:41:24.780Z,23.00
2018-02-10T12:43:52.975Z,24.30
2018-02-10T12:46:20.401Z,22.43
2018-02-10T12:51:51.464Z,17.70
2018-02-10T12:54:18.898Z,21.57
2018-02-10T12:56:46.322Z,19.93
2018-02-10T12:59:13.746Z,18.27
2018-02-10T13:01:41.168Z,20.80
2018-02-10T13:04:09.387Z,19.33
2018-02-10T13:06:36.820Z,20.70
2018-02-10T13:09:04.247Z,17.67
2018-02-10T13:11:31.672Z,19.43
2018-02-10T13:13:59.103Z,17.10
2018-02-10T13:16:27.305Z,16.60
2018-02-10T13:18:54.731Z,16.23
2018-02-10T13:21:22.151Z,16.00
2018-02-10T13:23:49.576Z,16.63
2018-02-10T13:26:17.788Z,16.23
2018-02-10T13:28:45.207Z,16.90
2018-02-10T13:31:12.635Z,18.50
2018-02-10T13:33:40.124Z,19.27
2018-02-10T13:36:07.552Z,19.50
2018-02-10T13:38:34.982Z,19.43
2018-02-10T13:41:02.395Z,19.13
2018-02-10T13:43:30.608Z,19.43
2018-02-10T13:45:58.052Z,20.93
2018-02-10T13:48:37.312Z,19.37
2018-02-10T13:51:05.503Z,19.13
2018-02-10T13:53:32.938Z,19.63
2018-02-10T13:56:00.364Z,19.93
2018-02-10T13:58:27.842Z,21.23
2018-02-10T14:00:55.252Z,21.50
2018-02-10T14:03:22.679Z,24.33
2018-02-10T14:05:50.877Z,25.63
2018-02-10T14:08:18.308Z,26.40
2018-02-10T14:10:45.757Z,29.43
2018-02-10T14:13:13.729Z,31.37
2018-02-10T14:15:41.267Z,31.77
2018-02-10T14:18:08.705Z,30.33
2018-02-10T14:20:37.796Z,33.73
2018-02-10T14:23:06.482Z,32.33
2018-02-10T14:25:33.921Z,31.83
2018-02-10T14:28:01.368Z,33.17
2018-02-10T14:30:29.307Z,35.87
2018-02-10T14:32:57.923Z,31.63
2018-02-10T14:35:26.419Z,30.80
2018-02-10T14:37:54.478Z,29.50
2018-02-10T14:40:21.921Z,31.20
2018-02-10T14:42:49.364Z,29.00
2018-02-10T14:45:17.545Z,25.57
2018-02-10T14:47:44.966Z,26.00
2018-02-10T14:50:12.722Z,25.33
2018-02-10T14:52:42.070Z,28.67
2018-02-10T14:55:09.775Z,29.73
2018-02-10T14:57:37.219Z,22.43
2018-02-10T15:00:04.698Z,29.30
2018-02-10T15:02:32.183Z,24.10
2018-02-10T15:05:00.790Z,23.23
2018-02-10T15:07:28.298Z,25.77
2018-02-10T15:09:55.736Z,24.17
2018-02-10T15:12:23.209Z,27.13
2018-02-10T15:14:50.674Z,27.50
2018-02-10T15:17:18.143Z,26.97
2018-02-10T15:19:45.559Z,24.77
2018-02-10T15:22:12.995Z,23.53
2018-02-10T15:24:41.205Z,22.73
2018-02-10T15:27:08.612Z,25.17
2018-02-10T15:29:47.859Z,26.07
2018-02-10T15:32:27.199Z,26.57
2018-02-10T15:34:58.619Z,25.73
2018-02-10T15:37:26.060Z,25.03
2018-02-10T15:39:53.500Z,27.73
2018-02-10T15:42:20.912Z,27.07
2018-02-10T15:44:48.337Z,25.67
2018-02-10T15:47:16.538Z,26.23
2018-02-10T15:49:43.983Z,29.73
2018-02-10T15:52:11.399Z,27.87
2018-02-10T15:54:38.868Z,28.23
2018-02-10T15:57:06.287Z,28.60
2018-02-10T15:59:33.731Z,28.20
2018-02-10T16:02:01.160Z,26.63
2018-02-10T16:04:28.585Z,24.97
2018-02-10T16:06:56.776Z,27.10
2018-02-10T16:09:24.214Z,27.90
2018-02-10T16:11:51.644Z,23.67
2018-02-10T16:14:19.080Z,25.37
2018-02-10T16:16:46.499Z,25.77
2018-02-10T16:19:14.719Z,26.67
2018-02-10T16:21:42.141Z,24.40
2018-02-10T16:24:09.601Z,25.43
2018-02-10T16:26:37.040Z,24.80
2018-02-10T16:29:04.467Z,24.33
2018-02-10T16:31:31.890Z,23.20
2018-02-10T16:33:59.311Z,25.00
2018-02-10T16:36:26.751Z,28.07
2018-02-10T16:38:54.956Z,27.23
2018-02-10T16:41:22.383Z,24.13
2018-02-10T16:43:49.824Z,23.00
2018-02-10T16:46:17.248Z,21.57
2018-02-10T16:48:44.671Z,23.33
2018-02-10T16:51:12.863Z,21.67
2018-02-10T16:53:40.287Z,24.23
2018-02-10T16:56:08.504Z,21.73
2018-02-10T16:58:35.927Z,24.47
2018-02-10T17:01:03.360Z,22.07
2018-02-10T17:03:30.802Z,21.87
2018-02-10T17:05:58.239Z,23.00
2018-02-10T17:08:25.683Z,18.70
2018-02-10T17:10:53.112Z,21.37
2018-02-10T17:13:20.544Z,23.37
2018-02-10T17:15:47.992Z,21.93
2018-02-10T17:18:15.424Z,23.17
2018-02-10T17:20:42.876Z,21.70
2018-02-10T17:23:10.304Z,22.07
2018-02-10T17:25:37.756Z,23.37
2018-02-10T17:28:05.937Z,22.20
2018-02-10T17:30:33.368Z,21.77
2018-02-10T17:33:00.795Z,21.90
2018-02-10T17:35:28.235Z,19.10
2018-02-10T17:37:55.695Z,20.00
2018-02-10T17:40:23.124Z,21.73
2018-02-10T17:42:50.547Z,21.87
2018-02-10T17:45:18.752Z,18.23
2018-02-10T17:47:46.867Z,21.63
2018-02-10T17:50:15.075Z,19.83
2018-02-10T17:52:42.497Z,22.67
2018-02-10T17:55:09.931Z,20.73
2018-02-10T17:57:37.356Z,19.83
2018-02-10T18:00:05.560Z,20.67
2018-02-10T18:02:32.996Z,19.43
2018-02-10T18:05:00.431Z,20.83
2018-02-10T18:07:27.858Z,20.77
2018-02-10T18:09:55.275Z,20.73
2018-02-10T18:12:23.510Z,18.60
2018-02-10T18:14:51.704Z,18.40
2018-02-10T18:17:19.125Z,18.57
2018-02-10T18:19:47.315Z,21.67
2018-02-10T18:22:14.748Z,17.87
2018-02-10T18:24:42.216Z,20.77
2018-02-10T18:27:09.611Z,23.13
2018-02-10T18:29:37.798Z,27.33
2018-02-10T18:32:05.224Z,24.43
2018-02-10T18:34:32.651Z,17.33
2018-02-10T18:37:00.848Z,19.37
2018-02-10T18:39:28.280Z,20.33
2018-02-10T18:41:55.708Z,20.03
2018-02-10T18:44:23.925Z,23.63
2018-02-10T18:46:51.359Z,25.97
2018-02-10T18:49:18.788Z,21.03
2018-02-10T18:51:46.211Z,18.83
2018-02-10T18:54:13.642Z,21.50
2018-02-10T18:56:41.075Z,19.20
2018-02-10T18:59:09.279Z,20.03
2018-02-10T19:01:36.734Z,20.73
2018-02-10T19:04:04.176Z,17.50
2018-02-10T19:06:31.708Z,18.50
2018-02-10T19:08:59.139Z,18.37
2018-02-10T19:11:26.580Z,17.37
2018-02-10T19:13:54.011Z,24.33
2018-02-10T19:16:21.442Z,23.50
2018-02-10T19:18:48.854Z,21.30
2018-02-10T19:21:17.064Z,18.97
2018-02-10T19:23:44.483Z,21.17
2018-02-10T19:26:11.956Z,16.83
2018-02-10T19:28:39.388Z,18.27
2018-02-10T19:31:06.814Z,22.70
2018-02-10T19:33:34.307Z,21.53
2018-02-10T19:36:01.719Z,19.60
2018-02-10T19:38:29.157Z,21.53
2018-02-10T19:40:56.599Z,22.00
2018-02-10T19:43:24.037Z,24.90
2018-02-10T19:45:51.468Z,22.83
2018-02-10T19:48:18.897Z,24.20
2018-02-10T19:50:46.336Z,21.60
2018-02-10T19:53:13.771Z,19.87
2018-02-10T19:55:41.948Z,20.93
2018-02-10T19:58:09.396Z,21.07
2018-02-10T20:00:36.828Z,20.50
2018-02-10T20:03:04.279Z,20.03
2018-02-10T20:05:31.711Z,18.30
2018-02-10T20:07:59.140Z,22.37
2018-02-10T20:10:26.587Z,20.13
2018-02-10T20:12:54.007Z,17.50
2018-02-10T20:15:22.193Z,20.17
2018-02-10T20:17:49.620Z,17.13
2018-02-10T20:20:17.051Z,16.47
2018-02-10T20:22:45.252Z,15.40
2018-02-10T20:25:12.685Z,17.90
2018-02-10T20:27:40.112Z,16.13
2018-02-10T20:30:07.547Z,16.67
2018-02-10T20:32:34.964Z,16.00
2018-02-10T20:35:03.160Z,16.13
2018-02-10T20:37:30.621Z,14.83
2018-02-10T20:39:58.044Z,15.17
2018-02-10T20:42:25.516Z,16.87
2018-02-10T20:44:52.960Z,14.03
2018-02-10T20:47:20.387Z,15.93
2018-02-10T20:49:47.819Z,15.63
2018-02-10T20:52:15.236Z,13.23
2018-02-10T20:54:42.669Z,15.37
2018-02-10T20:57:10.860Z,15.73
2018-02-10T20:59:38.283Z,18.17
2018-02-10T21:02:05.712Z,18.47
2018-02-10T21:04:33.152Z,15.80
2018-02-10T21:07:01.343Z,13.97
2018-02-10T21:09:28.773Z,14.63
2018-02-10T21:11:56.203Z,17.23
2018-02-10T21:14:23.655Z,14.83
2018-02-10T21:16:51.077Z,14.03
2018-02-10T21:19:19.267Z,16.27
2018-02-10T21:21:46.700Z,14.17
2018-02-10T21:24:14.123Z,12.77
2018-02-10T21:26:41.558Z,12.10
2018-02-10T21:29:09.782Z,12.37
2018-02-10T21:31:37.207Z,13.20
2018-02-10T21:34:04.660Z,15.63
2018-02-10T21:36:32.094Z,16.80
2018-02-10T21:38:59.513Z,14.60
2018-02-10T21:41:26.962Z,15.07
2018-02-10T21:43:54.421Z,13.00
2018-02-10T21:46:21.856Z,12.70
2018-02-10T21:48:49.274Z,13.90
2018-02-10T21:51:16.696Z,11.60
2018-02-10T21:53:44.116Z,11.73
2018-02-10T21:56:11.628Z,11.80
2018-02-10T21:58:39.059Z,12.33
2018-02-10T22:01:06.504Z,13.33
2018-02-10T22:03:33.936Z,11.37
2018-02-10T22:06:01.400Z,12.90
2018-02-10T22:08:28.827Z,11.60
2018-02-10T22:10:56.301Z,11.87
2018-02-10T22:13:23.726Z,13.90
2018-02-10T22:15:51.140Z,12.70
2018-02-10T22:18:18.572Z,11.03
2018-02-10T22:20:46.016Z,11.33
2018-02-10T22:23:13.443Z,11.73
2018-02-10T22:25:40.867Z,12.27
2018-02-10T22:28:09.068Z,10.43
2018-02-10T22:30:36.487Z,11.57
2018-02-10T22:33:03.914Z,11.80
2018-02-10T22:35:32.142Z,10.93
2018-02-10T22:37:59.564Z,10.50
2018-02-10T22:40:26.989Z,11.50
2018-02-10T22:42:54.405Z,11.57
2018-02-10T22:45:21.831Z,12.97
2018-02-10T22:47:50.028Z,12.00
2018-02-10T22:50:17.444Z,11.47
2018-02-10T22:52:44.875Z,11.57
2018-02-10T22:55:13.061Z,11.60
2018-02-10T22:57:40.491Z,11.30
2018-02-10T23:00:08.671Z,13.20
2018-02-10T23:02:36.091Z,11.57
2018-02-10T23:05:03.516Z,11.60
2018-02-10T23:07:31.707Z,11.40
2018-02-10T23:09:59.155Z,11.67
2018-02-10T23:12:26.572Z,11.40
2018-02-10T23:14:53.987Z,9.47
2018-02-10T23:17:21.432Z,10.00
2018-02-10T23:19:48.851Z,9.83
2018-02-10T23:22:16.375Z,11.80
2018-02-10T23:24:43.784Z,10.53
2018-02-10T23:27:11.222Z,10.80
2018-02-10T23:29:39.412Z,9.70
2018-02-10T23:32:06.835Z,9.93
2018-02-10T23:34:34.315Z,9.50
2018-02-10T23:37:01.737Z,8.67
2018-02-10T23:39:29.143Z,8.80
2018-02-10T23:41:56.573Z,9.53
2018-02-10T23:44:24.772Z,9.60
2018-02-10T23:46:52.182Z,10.03
2018-02-10T23:49:20.378Z,10.33
2018-02-10T23:51:47.807Z,8.90
2018-02-10T23:54:15.223Z,9.27
2018-02-10T23:56:43.728Z,9.80
2018-02-10T23:59:11.155Z,10.20
